METAR Data
IDs: Format: Raw Decoded Include TAF

Data at: 1936 UTC 25 Oct 2021

EDLN 251920Z AUTO 20005KT 170V240 9999 // BKN040/// 11/09 Q1018